sensor_id;sensor_type;location;lat;lon;timestamp;P1;durP1;ratioP1;P2;durP2;ratioP2
8040;SDS011;4063;48.140;10.250;2022-09-09T00:00:11;4.97;;;3.30;;
8040;SDS011;4063;48.140;10.250;2022-09-09T00:02:37;6.63;;;3.30;;
8040;SDS011;4063;48.140;10.250;2022-09-09T00:10:09;3.45;;;3.15;;
8040;SDS011;4063;48.140;10.250;2022-09-09T00:12:47;3.97;;;3.00;;
8040;SDS011;4063;48.140;10.250;2022-09-09T00:15:22;3.50;;;3.20;;
8040;SDS011;4063;48.140;10.250;2022-09-09T00:28:30;3.80;;;3.50;;
8040;SDS011;4063;48.140;10.250;2022-09-09T00:31:12;7.50;;;3.93;;
8040;SDS011;4063;48.140;10.250;2022-09-09T00:33:39;8.55;;;4.45;;
8040;SDS011;4063;48.140;10.250;2022-09-09T00:36:09;4.37;;;4.00;;
8040;SDS011;4063;48.140;10.250;2022-09-09T00:39:19;4.77;;;3.67;;
8040;SDS011;4063;48.140;10.250;2022-09-09T00:52:23;5.40;;;3.70;;
8040;SDS011;4063;48.140;10.250;2022-09-09T00:54:57;7.95;;;3.78;;
8040;SDS011;4063;48.140;10.250;2022-09-09T00:57:31;7.23;;;3.90;;
8040;SDS011;4063;48.140;10.250;2022-09-09T01:03:05;4.73;;;3.70;;
8040;SDS011;4063;48.140;10.250;2022-09-09T01:08:14;5.30;;;3.80;;
8040;SDS011;4063;48.140;10.250;2022-09-09T01:10:45;4.33;;;3.80;;
8040;SDS011;4063;48.140;10.250;2022-09-09T01:13:16;4.10;;;3.63;;
8040;SDS011;4063;48.140;10.250;2022-09-09T01:15:44;4.00;;;3.60;;
8040;SDS011;4063;48.140;10.250;2022-09-09T01:18:12;4.53;;;3.37;;
8040;SDS011;4063;48.140;10.250;2022-09-09T01:20:43;5.90;;;3.80;;
8040;SDS011;4063;48.140;10.250;2022-09-09T01:28:10;4.47;;;4.03;;
8040;SDS011;4063;48.140;10.250;2022-09-09T01:30:38;5.03;;;4.20;;
8040;SDS011;4063;48.140;10.250;2022-09-09T01:33:04;5.63;;;4.22;;
8040;SDS011;4063;48.140;10.250;2022-09-09T01:37:57;3.83;;;3.53;;
8040;SDS011;4063;48.140;10.250;2022-09-09T01:40:23;4.17;;;3.87;;
8040;SDS011;4063;48.140;10.250;2022-09-09T01:42:49;6.07;;;4.03;;
8040;SDS011;4063;48.140;10.250;2022-09-09T01:45:16;6.30;;;4.32;;
8040;SDS011;4063;48.140;10.250;2022-09-09T01:47:42;6.37;;;4.00;;
8040;SDS011;4063;48.140;10.250;2022-09-09T01:50:08;5.80;;;4.07;;
8040;SDS011;4063;48.140;10.250;2022-09-09T01:52:36;5.80;;;4.53;;
8040;SDS011;4063;48.140;10.250;2022-09-09T01:55:03;7.30;;;3.97;;
8040;SDS011;4063;48.140;10.250;2022-09-09T01:57:40;7.10;;;4.37;;
8040;SDS011;4063;48.140;10.250;2022-09-09T02:00:10;20.53;;;10.83;;
8040;SDS011;4063;48.140;10.250;2022-09-09T02:02:55;15.40;;;9.23;;
8040;SDS011;4063;48.140;10.250;2022-09-09T02:07:51;16.03;;;8.87;;
8040;SDS011;4063;48.140;10.250;2022-09-09T02:10:21;13.93;;;8.47;;
8040;SDS011;4063;48.140;10.250;2022-09-09T02:12:50;13.83;;;8.23;;
8040;SDS011;4063;48.140;10.250;2022-09-09T02:15:32;12.70;;;7.23;;
8040;SDS011;4063;48.140;10.250;2022-09-09T02:17:59;11.27;;;7.07;;
8040;SDS011;4063;48.140;10.250;2022-09-09T02:20:27;13.43;;;7.53;;
8040;SDS011;4063;48.140;10.250;2022-09-09T02:22:58;14.83;;;7.57;;
8040;SDS011;4063;48.140;10.250;2022-09-09T02:25:25;17.23;;;7.90;;
8040;SDS011;4063;48.140;10.250;2022-09-09T02:27:52;14.20;;;7.30;;
8040;SDS011;4063;48.140;10.250;2022-09-09T02:30:18;14.13;;;7.80;;
8040;SDS011;4063;48.140;10.250;2022-09-09T02:32:45;10.13;;;7.23;;
8040;SDS011;4063;48.140;10.250;2022-09-09T02:35:13;11.60;;;6.83;;
8040;SDS011;4063;48.140;10.250;2022-09-09T02:37:40;7.87;;;6.50;;
8040;SDS011;4063;48.140;10.250;2022-09-09T02:40:08;9.47;;;6.30;;
8040;SDS011;4063;48.140;10.250;2022-09-09T02:42:38;13.20;;;7.03;;
8040;SDS011;4063;48.140;10.250;2022-09-09T02:45:05;9.67;;;6.27;;
8040;SDS011;4063;48.140;10.250;2022-09-09T02:47:35;8.27;;;5.93;;
8040;SDS011;4063;48.140;10.250;2022-09-09T02:55:16;11.50;;;6.33;;
8040;SDS011;4063;48.140;10.250;2022-09-09T02:57:43;9.83;;;5.60;;
8040;SDS011;4063;48.140;10.250;2022-09-09T03:00:12;8.57;;;5.63;;
8040;SDS011;4063;48.140;10.250;2022-09-09T03:02:38;8.10;;;5.83;;
8040;SDS011;4063;48.140;10.250;2022-09-09T03:05:04;6.03;;;5.30;;
8040;SDS011;4063;48.140;10.250;2022-09-09T03:07:30;7.53;;;5.50;;
8040;SDS011;4063;48.140;10.250;2022-09-09T03:09:56;7.93;;;5.13;;
8040;SDS011;4063;48.140;10.250;2022-09-09T03:12:23;7.07;;;4.70;;
8040;SDS011;4063;48.140;10.250;2022-09-09T03:14:49;6.13;;;4.90;;
8040;SDS011;4063;48.140;10.250;2022-09-09T03:17:15;6.97;;;5.43;;
8040;SDS011;4063;48.140;10.250;2022-09-09T03:19:41;5.87;;;5.27;;
8040;SDS011;4063;48.140;10.250;2022-09-09T03:22:09;5.60;;;4.83;;
8040;SDS011;4063;48.140;10.250;2022-09-09T03:24:36;6.70;;;4.80;;
8040;SDS011;4063;48.140;10.250;2022-09-09T03:27:02;6.95;;;4.72;;
8040;SDS011;4063;48.140;10.250;2022-09-09T03:29:28;6.00;;;4.57;;
8040;SDS011;4063;48.140;10.250;2022-09-09T03:31:54;6.53;;;4.40;;
8040;SDS011;4063;48.140;10.250;2022-09-09T03:34:21;8.53;;;4.87;;
8040;SDS011;4063;48.140;10.250;2022-09-09T03:36:47;4.77;;;4.27;;
8040;SDS011;4063;48.140;10.250;2022-09-09T03:39:14;6.83;;;4.60;;
8040;SDS011;4063;48.140;10.250;2022-09-09T03:41:40;6.43;;;4.80;;
8040;SDS011;4063;48.140;10.250;2022-09-09T03:44:06;8.57;;;4.40;;
8040;SDS011;4063;48.140;10.250;2022-09-09T03:46:32;8.20;;;4.30;;
8040;SDS011;4063;48.140;10.250;2022-09-09T03:48:58;5.77;;;4.17;;
8040;SDS011;4063;48.140;10.250;2022-09-09T03:51:25;12.70;;;4.43;;
8040;SDS011;4063;48.140;10.250;2022-09-09T03:53:50;6.20;;;4.47;;
8040;SDS011;4063;48.140;10.250;2022-09-09T03:56:17;8.10;;;4.60;;
8040;SDS011;4063;48.140;10.250;2022-09-09T03:58:43;6.17;;;4.30;;
8040;SDS011;4063;48.140;10.250;2022-09-09T04:01:10;4.20;;;3.80;;
8040;SDS011;4063;48.140;10.250;2022-09-09T04:03:38;4.43;;;4.00;;
8040;SDS011;4063;48.140;10.250;2022-09-09T04:06:04;6.10;;;4.17;;
8040;SDS011;4063;48.140;10.250;2022-09-09T04:08:31;6.03;;;4.07;;
8040;SDS011;4063;48.140;10.250;2022-09-09T04:10:57;8.60;;;4.70;;
8040;SDS011;4063;48.140;10.250;2022-09-09T04:13:25;4.38;;;3.90;;
8040;SDS011;4063;48.140;10.250;2022-09-09T04:15:54;8.33;;;4.10;;
8040;SDS011;4063;48.140;10.250;2022-09-09T04:18:21;7.63;;;4.03;;
8040;SDS011;4063;48.140;10.250;2022-09-09T04:20:48;5.20;;;3.77;;
8040;SDS011;4063;48.140;10.250;2022-09-09T04:23:15;5.40;;;3.97;;
8040;SDS011;4063;48.140;10.250;2022-09-09T04:25:44;8.47;;;4.00;;
8040;SDS011;4063;48.140;10.250;2022-09-09T04:28:11;4.65;;;3.83;;
8040;SDS011;4063;48.140;10.250;2022-09-09T04:30:37;5.03;;;4.03;;
8040;SDS011;4063;48.140;10.250;2022-09-09T04:33:04;5.88;;;4.32;;
8040;SDS011;4063;48.140;10.250;2022-09-09T04:35:31;4.03;;;3.70;;
8040;SDS011;4063;48.140;10.250;2022-09-09T04:37:57;6.00;;;3.65;;
8040;SDS011;4063;48.140;10.250;2022-09-09T04:40:23;5.93;;;4.20;;
8040;SDS011;4063;48.140;10.250;2022-09-09T04:42:50;8.93;;;4.97;;
8040;SDS011;4063;48.140;10.250;2022-09-09T04:45:16;10.90;;;7.15;;
8040;SDS011;4063;48.140;10.250;2022-09-09T04:47:42;8.90;;;7.10;;
8040;SDS011;4063;48.140;10.250;2022-09-09T04:50:08;10.73;;;7.73;;
8040;SDS011;4063;48.140;10.250;2022-09-09T04:52:34;8.60;;;5.38;;
8040;SDS011;4063;48.140;10.250;2022-09-09T04:55:00;8.07;;;4.90;;
8040;SDS011;4063;48.140;10.250;2022-09-09T04:57:27;7.53;;;4.00;;
8040;SDS011;4063;48.140;10.250;2022-09-09T04:59:53;8.77;;;4.90;;
8040;SDS011;4063;48.140;10.250;2022-09-09T05:02:19;4.40;;;3.97;;
8040;SDS011;4063;48.140;10.250;2022-09-09T05:04:45;7.22;;;3.97;;
8040;SDS011;4063;48.140;10.250;2022-09-09T05:07:11;5.68;;;3.70;;
8040;SDS011;4063;48.140;10.250;2022-09-09T05:09:39;3.72;;;3.42;;
8040;SDS011;4063;48.140;10.250;2022-09-09T05:12:05;4.80;;;3.40;;
8040;SDS011;4063;48.140;10.250;2022-09-09T05:14:31;4.00;;;3.58;;
8040;SDS011;4063;48.140;10.250;2022-09-09T05:16:57;4.57;;;3.33;;
8040;SDS011;4063;48.140;10.250;2022-09-09T05:19:23;8.13;;;4.07;;
8040;SDS011;4063;48.140;10.250;2022-09-09T05:21:49;4.13;;;3.72;;
8040;SDS011;4063;48.140;10.250;2022-09-09T05:24:15;4.40;;;3.10;;
8040;SDS011;4063;48.140;10.250;2022-09-09T05:26:42;6.15;;;3.60;;
8040;SDS011;4063;48.140;10.250;2022-09-09T05:29:09;5.28;;;3.67;;
8040;SDS011;4063;48.140;10.250;2022-09-09T05:31:35;5.47;;;3.25;;
8040;SDS011;4063;48.140;10.250;2022-09-09T05:34:01;7.28;;;3.40;;
8040;SDS011;4063;48.140;10.250;2022-09-09T05:36:27;5.68;;;3.42;;
8040;SDS011;4063;48.140;10.250;2022-09-09T05:38:53;4.35;;;3.63;;
8040;SDS011;4063;48.140;10.250;2022-09-09T05:41:19;3.90;;;3.25;;
8040;SDS011;4063;48.140;10.250;2022-09-09T05:43:46;3.65;;;3.13;;
8040;SDS011;4063;48.140;10.250;2022-09-09T05:46:17;4.90;;;3.00;;
8040;SDS011;4063;48.140;10.250;2022-09-09T05:48:44;4.47;;;2.90;;
8040;SDS011;4063;48.140;10.250;2022-09-09T05:51:16;5.35;;;3.08;;
8040;SDS011;4063;48.140;10.250;2022-09-09T05:53:43;3.25;;;2.90;;
8040;SDS011;4063;48.140;10.250;2022-09-09T05:56:11;3.63;;;3.30;;
8040;SDS011;4063;48.140;10.250;2022-09-09T05:58:37;3.08;;;2.78;;
8040;SDS011;4063;48.140;10.250;2022-09-09T06:03:29;3.85;;;2.50;;
8040;SDS011;4063;48.140;10.250;2022-09-09T06:05:57;9.20;;;2.70;;
8040;SDS011;4063;48.140;10.250;2022-09-09T06:08:23;4.68;;;2.50;;
8040;SDS011;4063;48.140;10.250;2022-09-09T06:10:50;6.97;;;2.53;;
8040;SDS011;4063;48.140;10.250;2022-09-09T06:13:16;8.43;;;3.00;;
8040;SDS011;4063;48.140;10.250;2022-09-09T06:15:49;5.38;;;3.13;;
8040;SDS011;4063;48.140;10.250;2022-09-09T06:18:16;5.68;;;2.70;;
8040;SDS011;4063;48.140;10.250;2022-09-09T06:20:43;3.85;;;2.90;;
8040;SDS011;4063;48.140;10.250;2022-09-09T06:23:18;5.57;;;3.00;;
8040;SDS011;4063;48.140;10.250;2022-09-09T06:25:45;11.00;;;3.00;;
8040;SDS011;4063;48.140;10.250;2022-09-09T06:28:11;4.70;;;3.15;;
8040;SDS011;4063;48.140;10.250;2022-09-09T06:30:38;5.28;;;3.17;;
8040;SDS011;4063;48.140;10.250;2022-09-09T06:33:05;3.70;;;3.35;;
8040;SDS011;4063;48.140;10.250;2022-09-09T06:35:31;3.55;;;2.95;;
8040;SDS011;4063;48.140;10.250;2022-09-09T06:37:57;8.63;;;2.92;;
8040;SDS011;4063;48.140;10.250;2022-09-09T06:40:23;4.85;;;2.90;;
8040;SDS011;4063;48.140;10.250;2022-09-09T06:42:49;4.38;;;3.00;;
8040;SDS011;4063;48.140;10.250;2022-09-09T06:45:16;4.20;;;3.17;;
8040;SDS011;4063;48.140;10.250;2022-09-09T06:47:42;7.85;;;3.15;;
8040;SDS011;4063;48.140;10.250;2022-09-09T06:50:09;5.43;;;3.42;;
8040;SDS011;4063;48.140;10.250;2022-09-09T06:52:36;3.58;;;3.20;;
8040;SDS011;4063;48.140;10.250;2022-09-09T06:55:02;4.53;;;2.63;;
8040;SDS011;4063;48.140;10.250;2022-09-09T06:57:28;5.55;;;2.95;;
8040;SDS011;4063;48.140;10.250;2022-09-09T06:59:54;6.53;;;2.67;;
8040;SDS011;4063;48.140;10.250;2022-09-09T07:02:20;5.55;;;2.80;;
8040;SDS011;4063;48.140;10.250;2022-09-09T07:04:46;3.55;;;2.42;;
8040;SDS011;4063;48.140;10.250;2022-09-09T07:07:15;3.35;;;2.60;;
8040;SDS011;4063;48.140;10.250;2022-09-09T07:09:42;4.43;;;2.40;;
8040;SDS011;4063;48.140;10.250;2022-09-09T07:12:10;6.35;;;2.53;;
8040;SDS011;4063;48.140;10.250;2022-09-09T07:14:37;3.70;;;2.42;;
8040;SDS011;4063;48.140;10.250;2022-09-09T07:17:04;6.40;;;2.30;;
8040;SDS011;4063;48.140;10.250;2022-09-09T07:19:30;4.45;;;2.40;;
8040;SDS011;4063;48.140;10.250;2022-09-09T07:21:56;4.20;;;1.98;;
8040;SDS011;4063;48.140;10.250;2022-09-09T07:24:22;6.80;;;2.15;;
8040;SDS011;4063;48.140;10.250;2022-09-09T07:26:48;3.28;;;1.98;;
8040;SDS011;4063;48.140;10.250;2022-09-09T07:29:14;2.45;;;2.17;;
8040;SDS011;4063;48.140;10.250;2022-09-09T07:31:40;4.32;;;2.15;;
8040;SDS011;4063;48.140;10.250;2022-09-09T07:34:07;5.25;;;2.35;;
8040;SDS011;4063;48.140;10.250;2022-09-09T07:36:34;2.83;;;2.00;;
8040;SDS011;4063;48.140;10.250;2022-09-09T07:39:01;3.15;;;1.73;;
8040;SDS011;4063;48.140;10.250;2022-09-09T07:41:29;2.30;;;1.85;;
8040;SDS011;4063;48.140;10.250;2022-09-09T07:43:56;4.15;;;2.15;;
8040;SDS011;4063;48.140;10.250;2022-09-09T07:46:24;2.55;;;1.85;;
8040;SDS011;4063;48.140;10.250;2022-09-09T07:48:51;2.75;;;2.00;;
8040;SDS011;4063;48.140;10.250;2022-09-09T07:51:21;3.67;;;2.00;;
8040;SDS011;4063;48.140;10.250;2022-09-09T07:53:48;5.38;;;1.83;;
8040;SDS011;4063;48.140;10.250;2022-09-09T07:56:15;3.10;;;1.70;;
8040;SDS011;4063;48.140;10.250;2022-09-09T07:58:42;2.45;;;1.67;;
8040;SDS011;4063;48.140;10.250;2022-09-09T08:01:14;4.95;;;1.98;;
8040;SDS011;4063;48.140;10.250;2022-09-09T08:03:41;2.45;;;1.75;;
8040;SDS011;4063;48.140;10.250;2022-09-09T08:06:09;7.38;;;2.20;;
8040;SDS011;4063;48.140;10.250;2022-09-09T08:08:36;4.25;;;1.83;;
8040;SDS011;4063;48.140;10.250;2022-09-09T08:13:36;6.13;;;2.25;;
8040;SDS011;4063;48.140;10.250;2022-09-09T08:18:37;4.15;;;1.70;;
8040;SDS011;4063;48.140;10.250;2022-09-09T08:21:14;3.05;;;1.45;;
8040;SDS011;4063;48.140;10.250;2022-09-09T08:23:42;5.55;;;1.75;;
8040;SDS011;4063;48.140;10.250;2022-09-09T08:26:09;2.22;;;1.40;;
8040;SDS011;4063;48.140;10.250;2022-09-09T08:28:36;3.15;;;1.42;;
8040;SDS011;4063;48.140;10.250;2022-09-09T08:31:09;3.00;;;1.65;;
8040;SDS011;4063;48.140;10.250;2022-09-09T08:33:36;3.55;;;1.77;;
8040;SDS011;4063;48.140;10.250;2022-09-09T08:36:03;3.83;;;1.70;;
8040;SDS011;4063;48.140;10.250;2022-09-09T08:38:29;3.65;;;1.60;;
8040;SDS011;4063;48.140;10.250;2022-09-09T08:41:00;4.28;;;1.88;;
8040;SDS011;4063;48.140;10.250;2022-09-09T08:43:29;3.28;;;1.52;;
8040;SDS011;4063;48.140;10.250;2022-09-09T08:46:41;3.20;;;1.67;;
8040;SDS011;4063;48.140;10.250;2022-09-09T08:51:19;5.60;;;1.70;;
8040;SDS011;4063;48.140;10.250;2022-09-09T08:53:46;5.10;;;1.98;;
8040;SDS011;4063;48.140;10.250;2022-09-09T08:56:14;2.45;;;1.30;;
8040;SDS011;4063;48.140;10.250;2022-09-09T08:58:47;3.90;;;1.65;;
8040;SDS011;4063;48.140;10.250;2022-09-09T09:06:25;4.50;;;1.80;;
8040;SDS011;4063;48.140;10.250;2022-09-09T09:11:34;3.25;;;1.42;;
8040;SDS011;4063;48.140;10.250;2022-09-09T09:14:02;3.38;;;1.45;;
8040;SDS011;4063;48.140;10.250;2022-09-09T09:16:33;5.40;;;1.80;;
8040;SDS011;4063;48.140;10.250;2022-09-09T09:19:00;4.22;;;1.92;;
8040;SDS011;4063;48.140;10.250;2022-09-09T09:21:34;2.97;;;1.58;;
8040;SDS011;4063;48.140;10.250;2022-09-09T09:24:02;6.72;;;3.30;;
8040;SDS011;4063;48.140;10.250;2022-09-09T09:26:33;4.90;;;1.98;;
8040;SDS011;4063;48.140;10.250;2022-09-09T09:29:00;3.75;;;1.50;;
8040;SDS011;4063;48.140;10.250;2022-09-09T09:31:29;4.85;;;1.70;;
8040;SDS011;4063;48.140;10.250;2022-09-09T09:33:57;4.07;;;1.92;;
8040;SDS011;4063;48.140;10.250;2022-09-09T09:36:34;2.00;;;1.38;;
8040;SDS011;4063;48.140;10.250;2022-09-09T09:39:02;7.25;;;1.98;;
8040;SDS011;4063;48.140;10.250;2022-09-09T09:41:31;2.20;;;1.20;;
8040;SDS011;4063;48.140;10.250;2022-09-09T09:43:57;2.95;;;1.42;;
8040;SDS011;4063;48.140;10.250;2022-09-09T09:46:24;4.47;;;1.60;;
8040;SDS011;4063;48.140;10.250;2022-09-09T09:49:01;3.38;;;1.90;;
8040;SDS011;4063;48.140;10.250;2022-09-09T09:51:28;5.65;;;1.63;;
8040;SDS011;4063;48.140;10.250;2022-09-09T09:54:01;2.97;;;1.20;;
8040;SDS011;4063;48.140;10.250;2022-09-09T09:56:30;3.15;;;1.30;;
8040;SDS011;4063;48.140;10.250;2022-09-09T09:58:57;4.95;;;1.27;;
8040;SDS011;4063;48.140;10.250;2022-09-09T10:01:27;2.60;;;1.55;;
8040;SDS011;4063;48.140;10.250;2022-09-09T10:03:57;2.25;;;1.40;;
8040;SDS011;4063;48.140;10.250;2022-09-09T10:06:30;5.90;;;1.50;;
8040;SDS011;4063;48.140;10.250;2022-09-09T10:08:56;1.67;;;1.20;;
8040;SDS011;4063;48.140;10.250;2022-09-09T10:11:27;3.45;;;1.58;;
8040;SDS011;4063;48.140;10.250;2022-09-09T10:14:12;4.68;;;1.42;;
8040;SDS011;4063;48.140;10.250;2022-09-09T10:22:02;3.70;;;1.50;;
8040;SDS011;4063;48.140;10.250;2022-09-09T10:27:05;3.47;;;1.50;;
8040;SDS011;4063;48.140;10.250;2022-09-09T10:34:50;2.22;;;1.20;;
8040;SDS011;4063;48.140;10.250;2022-09-09T10:42:51;5.20;;;2.80;;
8040;SDS011;4063;48.140;10.250;2022-09-09T10:45:20;4.68;;;2.50;;
8040;SDS011;4063;48.140;10.250;2022-09-09T10:48:00;4.75;;;1.40;;
8040;SDS011;4063;48.140;10.250;2022-09-09T10:55:25;3.05;;;1.40;;
8040;SDS011;4063;48.140;10.250;2022-09-09T10:57:53;3.60;;;1.50;;
8040;SDS011;4063;48.140;10.250;2022-09-09T11:01:24;4.90;;;1.77;;
8040;SDS011;4063;48.140;10.250;2022-09-09T11:03:19;3.85;;;1.20;;
8040;SDS011;4063;48.140;10.250;2022-09-09T11:05:47;3.97;;;1.35;;
8040;SDS011;4063;48.140;10.250;2022-09-09T11:08:19;3.60;;;1.60;;
8040;SDS011;4063;48.140;10.250;2022-09-09T11:14:03;4.00;;;1.50;;
8040;SDS011;4063;48.140;10.250;2022-09-09T11:18:36;5.28;;;1.48;;
8040;SDS011;4063;48.140;10.250;2022-09-09T11:21:04;3.10;;;1.42;;
8040;SDS011;4063;48.140;10.250;2022-09-09T11:23:43;2.28;;;0.95;;
8040;SDS011;4063;48.140;10.250;2022-09-09T11:26:15;3.65;;;1.40;;
8040;SDS011;4063;48.140;10.250;2022-09-09T11:28:51;2.35;;;1.25;;
8040;SDS011;4063;48.140;10.250;2022-09-09T11:31:36;5.22;;;1.48;;
8040;SDS011;4063;48.140;10.250;2022-09-09T11:36:54;2.42;;;1.25;;
8040;SDS011;4063;48.140;10.250;2022-09-09T11:44:52;5.53;;;1.92;;
8040;SDS011;4063;48.140;10.250;2022-09-09T11:47:29;2.65;;;1.30;;
8040;SDS011;4063;48.140;10.250;2022-09-09T11:50:09;2.55;;;1.33;;
8040;SDS011;4063;48.140;10.250;2022-09-09T11:52:46;6.13;;;1.45;;
8040;SDS011;4063;48.140;10.250;2022-09-09T11:55:26;3.75;;;1.90;;
8040;SDS011;4063;48.140;10.250;2022-09-09T11:58:01;3.17;;;1.20;;
8040;SDS011;4063;48.140;10.250;2022-09-09T12:00:30;3.25;;;1.33;;
8040;SDS011;4063;48.140;10.250;2022-09-09T12:02:57;3.47;;;1.30;;
8040;SDS011;4063;48.140;10.250;2022-09-09T12:05:23;3.50;;;1.38;;
8040;SDS011;4063;48.140;10.250;2022-09-09T12:08:01;4.63;;;1.50;;
8040;SDS011;4063;48.140;10.250;2022-09-09T12:10:29;4.05;;;1.75;;
8040;SDS011;4063;48.140;10.250;2022-09-09T12:15:51;5.00;;;1.58;;
8040;SDS011;4063;48.140;10.250;2022-09-09T12:18:34;3.08;;;1.40;;
8040;SDS011;4063;48.140;10.250;2022-09-09T12:28:41;2.17;;;1.23;;
8040;SDS011;4063;48.140;10.250;2022-09-09T12:31:25;1.88;;;1.10;;
8040;SDS011;4063;48.140;10.250;2022-09-09T12:33:53;3.50;;;1.50;;
8040;SDS011;4063;48.140;10.250;2022-09-09T12:36:23;1.30;;;1.00;;
8040;SDS011;4063;48.140;10.250;2022-09-09T12:38:50;3.00;;;1.45;;
8040;SDS011;4063;48.140;10.250;2022-09-09T12:41:21;2.97;;;1.33;;
8040;SDS011;4063;48.140;10.250;2022-09-09T12:43:47;4.00;;;1.55;;
8040;SDS011;4063;48.140;10.250;2022-09-09T12:46:19;6.10;;;1.58;;
8040;SDS011;4063;48.140;10.250;2022-09-09T12:48:46;2.72;;;1.35;;
8040;SDS011;4063;48.140;10.250;2022-09-09T12:51:21;1.48;;;1.08;;
8040;SDS011;4063;48.140;10.250;2022-09-09T12:53:50;2.95;;;1.60;;
8040;SDS011;4063;48.140;10.250;2022-09-09T12:56:20;3.53;;;1.50;;
8040;SDS011;4063;48.140;10.250;2022-09-09T12:58:48;4.18;;;1.25;;
8040;SDS011;4063;48.140;10.250;2022-09-09T13:01:23;2.47;;;1.30;;
8040;SDS011;4063;48.140;10.250;2022-09-09T13:03:50;2.35;;;1.38;;
8040;SDS011;4063;48.140;10.250;2022-09-09T13:06:29;2.45;;;1.00;;
8040;SDS011;4063;48.140;10.250;2022-09-09T13:08:58;3.30;;;1.23;;
8040;SDS011;4063;48.140;10.250;2022-09-09T13:11:39;1.13;;;0.88;;
8040;SDS011;4063;48.140;10.250;2022-09-09T13:14:13;1.13;;;0.80;;
8040;SDS011;4063;48.140;10.250;2022-09-09T13:16:53;4.40;;;1.42;;
8040;SDS011;4063;48.140;10.250;2022-09-09T13:19:20;1.85;;;1.30;;
8040;SDS011;4063;48.140;10.250;2022-09-09T13:21:46;1.20;;;0.80;;
8040;SDS011;4063;48.140;10.250;2022-09-09T13:24:30;5.32;;;1.30;;
8040;SDS011;4063;48.140;10.250;2022-09-09T13:26:57;2.72;;;1.10;;
8040;SDS011;4063;48.140;10.250;2022-09-09T13:29:23;1.65;;;1.08;;
8040;SDS011;4063;48.140;10.250;2022-09-09T13:31:50;1.73;;;1.20;;
8040;SDS011;4063;48.140;10.250;2022-09-09T13:36:52;1.77;;;0.98;;
8040;SDS011;4063;48.140;10.250;2022-09-09T13:39:19;5.22;;;1.38;;
8040;SDS011;4063;48.140;10.250;2022-09-09T13:41:46;3.33;;;1.30;;
8040;SDS011;4063;48.140;10.250;2022-09-09T13:44:23;2.88;;;1.00;;
8040;SDS011;4063;48.140;10.250;2022-09-09T13:49:28;43.17;;;4.18;;
8040;SDS011;4063;48.140;10.250;2022-09-09T13:52:28;12.93;;;2.10;;
8040;SDS011;4063;48.140;10.250;2022-09-09T13:54:51;5.00;;;1.13;;
8040;SDS011;4063;48.140;10.250;2022-09-09T13:57:21;1.38;;;1.00;;
8040;SDS011;4063;48.140;10.250;2022-09-09T13:59:47;4.80;;;1.55;;
8040;SDS011;4063;48.140;10.250;2022-09-09T14:02:14;1.85;;;1.00;;
8040;SDS011;4063;48.140;10.250;2022-09-09T14:04:41;2.17;;;1.30;;
8040;SDS011;4063;48.140;10.250;2022-09-09T14:07:09;1.20;;;0.90;;
8040;SDS011;4063;48.140;10.250;2022-09-09T14:09:36;3.15;;;1.20;;
8040;SDS011;4063;48.140;10.250;2022-09-09T14:12:02;1.10;;;1.00;;
8040;SDS011;4063;48.140;10.250;2022-09-09T14:14:29;7.68;;;1.58;;
8040;SDS011;4063;48.140;10.250;2022-09-09T14:16:55;1.80;;;1.33;;
8040;SDS011;4063;48.140;10.250;2022-09-09T14:19:21;3.50;;;0.95;;
8040;SDS011;4063;48.140;10.250;2022-09-09T14:21:47;2.38;;;1.23;;
8040;SDS011;4063;48.140;10.250;2022-09-09T14:24:15;3.15;;;1.25;;
8040;SDS011;4063;48.140;10.250;2022-09-09T14:26:41;2.47;;;1.23;;
8040;SDS011;4063;48.140;10.250;2022-09-09T14:29:07;5.57;;;1.58;;
8040;SDS011;4063;48.140;10.250;2022-09-09T14:31:33;1.60;;;1.02;;
8040;SDS011;4063;48.140;10.250;2022-09-09T14:33:59;1.60;;;0.95;;
8040;SDS011;4063;48.140;10.250;2022-09-09T14:36:25;3.45;;;1.25;;
8040;SDS011;4063;48.140;10.250;2022-09-09T14:38:51;1.83;;;0.90;;
8040;SDS011;4063;48.140;10.250;2022-09-09T14:41:18;1.98;;;1.10;;
8040;SDS011;4063;48.140;10.250;2022-09-09T14:43:45;2.38;;;1.33;;
8040;SDS011;4063;48.140;10.250;2022-09-09T14:46:12;1.75;;;1.10;;
8040;SDS011;4063;48.140;10.250;2022-09-09T14:48:38;1.83;;;1.00;;
8040;SDS011;4063;48.140;10.250;2022-09-09T14:51:09;5.88;;;1.27;;
8040;SDS011;4063;48.140;10.250;2022-09-09T14:53:35;1.80;;;1.25;;
8040;SDS011;4063;48.140;10.250;2022-09-09T14:56:03;4.78;;;1.60;;
8040;SDS011;4063;48.140;10.250;2022-09-09T14:58:32;2.55;;;0.90;;
8040;SDS011;4063;48.140;10.250;2022-09-09T15:01:06;2.65;;;1.00;;
8040;SDS011;4063;48.140;10.250;2022-09-09T15:03:32;1.63;;;0.90;;
8040;SDS011;4063;48.140;10.250;2022-09-09T15:06:04;1.98;;;1.20;;
8040;SDS011;4063;48.140;10.250;2022-09-09T15:08:31;4.38;;;1.40;;
8040;SDS011;4063;48.140;10.250;2022-09-09T15:11:00;2.15;;;1.15;;
8040;SDS011;4063;48.140;10.250;2022-09-09T15:13:26;2.35;;;1.35;;
8040;SDS011;4063;48.140;10.250;2022-09-09T15:15:52;1.83;;;1.15;;
8040;SDS011;4063;48.140;10.250;2022-09-09T15:18:19;1.63;;;0.85;;
8040;SDS011;4063;48.140;10.250;2022-09-09T15:20:45;4.15;;;1.05;;
8040;SDS011;4063;48.140;10.250;2022-09-09T15:23:11;1.88;;;1.10;;
8040;SDS011;4063;48.140;10.250;2022-09-09T15:25:38;2.05;;;1.05;;
8040;SDS011;4063;48.140;10.250;2022-09-09T15:28:05;3.20;;;1.27;;
8040;SDS011;4063;48.140;10.250;2022-09-09T15:30:31;3.70;;;1.10;;
8040;SDS011;4063;48.140;10.250;2022-09-09T15:32:57;3.53;;;1.13;;
8040;SDS011;4063;48.140;10.250;2022-09-09T15:35:23;2.13;;;1.45;;
8040;SDS011;4063;48.140;10.250;2022-09-09T15:37:49;3.08;;;1.10;;
8040;SDS011;4063;48.140;10.250;2022-09-09T15:40:15;2.40;;;1.00;;
8040;SDS011;4063;48.140;10.250;2022-09-09T15:42:41;1.98;;;1.13;;
8040;SDS011;4063;48.140;10.250;2022-09-09T15:45:07;1.95;;;1.10;;
8040;SDS011;4063;48.140;10.250;2022-09-09T15:47:34;5.68;;;1.45;;
8040;SDS011;4063;48.140;10.250;2022-09-09T15:50:00;4.00;;;1.40;;
8040;SDS011;4063;48.140;10.250;2022-09-09T15:52:26;4.47;;;1.48;;
8040;SDS011;4063;48.140;10.250;2022-09-09T15:54:52;4.00;;;1.75;;
8040;SDS011;4063;48.140;10.250;2022-09-09T15:57:19;2.15;;;1.45;;
8040;SDS011;4063;48.140;10.250;2022-09-09T15:59:45;5.10;;;1.55;;
8040;SDS011;4063;48.140;10.250;2022-09-09T16:02:11;3.60;;;1.55;;
8040;SDS011;4063;48.140;10.250;2022-09-09T16:04:37;3.88;;;1.50;;
8040;SDS011;4063;48.140;10.250;2022-09-09T16:07:04;3.28;;;1.25;;
8040;SDS011;4063;48.140;10.250;2022-09-09T16:09:31;5.90;;;1.30;;
8040;SDS011;4063;48.140;10.250;2022-09-09T16:11:57;1.70;;;0.93;;
8040;SDS011;4063;48.140;10.250;2022-09-09T16:14:25;1.48;;;0.82;;
8040;SDS011;4063;48.140;10.250;2022-09-09T16:16:51;2.55;;;0.90;;
8040;SDS011;4063;48.140;10.250;2022-09-09T16:19:18;3.65;;;1.60;;
8040;SDS011;4063;48.140;10.250;2022-09-09T16:21:47;1.90;;;1.20;;
8040;SDS011;4063;48.140;10.250;2022-09-09T16:24:14;2.15;;;1.25;;
8040;SDS011;4063;48.140;10.250;2022-09-09T16:26:44;3.20;;;1.08;;
8040;SDS011;4063;48.140;10.250;2022-09-09T16:29:10;1.83;;;1.10;;
8040;SDS011;4063;48.140;10.250;2022-09-09T16:31:36;2.30;;;1.25;;
8040;SDS011;4063;48.140;10.250;2022-09-09T16:34:03;2.92;;;1.35;;
8040;SDS011;4063;48.140;10.250;2022-09-09T16:36:29;2.00;;;1.27;;
8040;SDS011;4063;48.140;10.250;2022-09-09T16:39:01;5.05;;;1.30;;
8040;SDS011;4063;48.140;10.250;2022-09-09T16:41:28;4.45;;;1.20;;
8040;SDS011;4063;48.140;10.250;2022-09-09T16:43:55;2.05;;;1.10;;
8040;SDS011;4063;48.140;10.250;2022-09-09T16:46:21;2.58;;;1.10;;
8040;SDS011;4063;48.140;10.250;2022-09-09T16:48:48;4.25;;;1.77;;
8040;SDS011;4063;48.140;10.250;2022-09-09T16:51:16;3.67;;;2.20;;
8040;SDS011;4063;48.140;10.250;2022-09-09T16:53:42;2.42;;;1.60;;
8040;SDS011;4063;48.140;10.250;2022-09-09T16:56:10;5.05;;;1.73;;
8040;SDS011;4063;48.140;10.250;2022-09-09T16:58:36;2.17;;;1.35;;
8040;SDS011;4063;48.140;10.250;2022-09-09T17:01:03;3.47;;;1.50;;
8040;SDS011;4063;48.140;10.250;2022-09-09T17:03:30;2.55;;;1.38;;
8040;SDS011;4063;48.140;10.250;2022-09-09T17:05:57;3.13;;;1.50;;